createdAt,value
2023-03-12T00:02:08.104Z,12.17
2023-03-12T00:04:56.746Z,12.30
2023-03-12T00:07:45.213Z,12.93
2023-03-12T00:10:34.210Z,11.57
2023-03-12T00:13:24.080Z,15.23
2023-03-12T00:16:14.139Z,13.33
2023-03-12T00:19:02.758Z,12.37
2023-03-12T00:21:51.325Z,12.67
2023-03-12T00:24:39.824Z,12.30
2023-03-12T00:27:28.463Z,10.40
2023-03-12T00:30:18.572Z,13.00
2023-03-12T00:33:07.037Z,13.40
2023-03-12T00:35:55.723Z,11.90
2023-03-12T00:38:44.474Z,11.77
2023-03-12T00:41:32.976Z,12.80
2023-03-12T00:44:21.508Z,11.70
2023-03-12T00:47:11.700Z,11.83
2023-03-12T00:50:00.257Z,11.77
2023-03-12T00:52:48.946Z,11.30
2023-03-12T00:55:37.491Z,10.90
2023-03-12T00:58:25.942Z,12.37
2023-03-12T01:01:14.505Z,13.80
2023-03-12T01:04:04.450Z,11.20
2023-03-12T01:06:52.997Z,11.80
2023-03-12T01:09:41.643Z,11.83
2023-03-12T01:12:30.112Z,11.43
2023-03-12T01:15:19.348Z,12.30
2023-03-12T01:18:07.822Z,12.23
2023-03-12T01:20:57.672Z,12.20
2023-03-12T01:23:46.187Z,11.77
2023-03-12T01:26:34.845Z,11.43
2023-03-12T01:29:23.575Z,13.07
2023-03-12T01:32:12.066Z,12.30
2023-03-12T01:35:00.920Z,11.90
2023-03-12T01:37:50.978Z,11.17
2023-03-12T01:40:40.240Z,10.77
2023-03-12T01:43:30.859Z,10.20
2023-03-12T01:46:31.791Z,11.67
2023-03-12T01:49:23.182Z,10.10
2023-03-12T01:52:14.042Z,10.90
2023-03-12T01:55:07.081Z,11.17
2023-03-12T01:57:58.448Z,11.13
2023-03-12T02:00:47.102Z,10.60
2023-03-12T02:03:36.009Z,9.67
2023-03-12T02:06:27.684Z,11.03
2023-03-12T02:09:16.428Z,10.60
2023-03-12T02:12:07.420Z,9.83
2023-03-12T02:14:55.905Z,9.40
2023-03-12T02:17:44.483Z,10.13
2023-03-12T02:20:36.353Z,10.30
2023-03-12T02:23:30.664Z,10.90
2023-03-12T02:26:22.262Z,11.13
2023-03-12T02:29:11.563Z,10.00
2023-03-12T02:32:02.591Z,9.97
2023-03-12T02:34:51.427Z,9.70
2023-03-12T02:37:48.808Z,11.17
2023-03-12T02:40:40.880Z,10.87
2023-03-12T02:43:31.112Z,11.43
2023-03-12T02:46:19.819Z,10.20
2023-03-12T02:49:08.922Z,10.43
2023-03-12T02:51:58.212Z,9.67
2023-03-12T02:54:46.960Z,9.50
2023-03-12T02:57:37.528Z,9.73
2023-03-12T03:00:27.577Z,8.93
2023-03-12T03:03:16.158Z,8.73
2023-03-12T03:06:05.084Z,10.50
2023-03-12T03:08:53.683Z,9.60
2023-03-12T03:11:42.394Z,9.40
2023-03-12T03:14:30.947Z,8.90
2023-03-12T03:17:23.358Z,9.30
2023-03-12T03:20:12.296Z,9.40
2023-03-12T03:23:00.821Z,9.80
2023-03-12T03:25:49.350Z,9.20
2023-03-12T03:28:37.870Z,9.67
2023-03-12T03:31:26.408Z,10.03
2023-03-12T03:34:16.558Z,9.23
2023-03-12T03:37:05.024Z,9.17
2023-03-12T03:39:53.516Z,9.00
2023-03-12T03:42:42.090Z,8.00
2023-03-12T03:45:30.578Z,9.37
2023-03-12T03:48:19.064Z,9.00
2023-03-12T03:51:09.993Z,9.20
2023-03-12T03:54:00.382Z,8.70
2023-03-12T03:56:48.942Z,8.90
2023-03-12T03:59:37.414Z,8.10
2023-03-12T04:02:26.608Z,8.17
2023-03-12T04:05:16.009Z,9.37
2023-03-12T04:08:06.438Z,7.97
2023-03-12T04:10:54.983Z,8.67
2023-03-12T04:13:43.796Z,9.40
2023-03-12T04:16:32.325Z,8.90
2023-03-12T04:19:21.166Z,9.00
2023-03-12T04:22:09.708Z,10.90
2023-03-12T04:24:59.563Z,8.13
2023-03-12T04:27:48.063Z,7.80
2023-03-12T04:30:38.200Z,8.10
2023-03-12T04:33:26.860Z,9.63
2023-03-12T04:36:16.240Z,8.40
2023-03-12T04:39:07.201Z,8.93
2023-03-12T04:41:57.043Z,9.13
2023-03-12T04:44:45.574Z,9.77
2023-03-12T04:47:34.729Z,8.30
2023-03-12T04:50:23.188Z,7.70
2023-03-12T04:53:11.821Z,8.10
2023-03-12T04:56:00.430Z,8.73
2023-03-12T04:58:51.314Z,9.30
2023-03-12T05:01:39.968Z,8.20
2023-03-12T05:04:28.442Z,9.77
2023-03-12T05:07:16.917Z,9.63
2023-03-12T05:10:06.215Z,8.00
2023-03-12T05:12:54.751Z,8.30
2023-03-12T05:15:45.112Z,10.23
2023-03-12T05:18:33.568Z,9.10
2023-03-12T05:21:22.653Z,8.53
2023-03-12T05:24:13.949Z,9.07
2023-03-12T05:27:02.393Z,9.60
2023-03-12T05:29:50.903Z,8.30
2023-03-12T05:32:40.837Z,9.80
2023-03-12T05:35:32.066Z,9.30
2023-03-12T05:38:20.674Z,8.23
2023-03-12T05:41:09.816Z,8.93
2023-03-12T05:43:58.881Z,8.23
2023-03-12T05:46:47.686Z,9.53
2023-03-12T05:49:37.584Z,8.57
2023-03-12T05:52:26.037Z,9.30
2023-03-12T05:55:14.633Z,9.50
2023-03-12T05:58:03.346Z,10.13
2023-03-12T06:00:51.868Z,8.60
2023-03-12T06:03:40.493Z,7.97
2023-03-12T06:06:31.185Z,9.50
2023-03-12T06:09:19.649Z,8.67
2023-03-12T06:12:08.417Z,8.13
2023-03-12T06:14:58.595Z,8.60
2023-03-12T06:17:47.160Z,7.80
2023-03-12T06:20:35.676Z,7.73
2023-03-12T06:23:25.549Z,7.97
2023-03-12T06:26:14.123Z,8.40
2023-03-12T06:29:02.629Z,8.40
2023-03-12T06:31:52.254Z,8.13
2023-03-12T06:34:41.125Z,8.63
2023-03-12T06:37:29.614Z,8.17
2023-03-12T06:40:19.838Z,7.50
2023-03-12T06:43:12.141Z,8.20
2023-03-12T06:46:02.020Z,8.70
2023-03-12T06:48:50.535Z,7.60
2023-03-12T06:51:39.335Z,7.37
2023-03-12T06:54:27.835Z,7.30
2023-03-12T06:57:17.914Z,7.43
2023-03-12T07:00:08.111Z,7.90
2023-03-12T07:02:57.017Z,7.73
2023-03-12T07:05:46.026Z,7.70
2023-03-12T07:08:34.483Z,8.53
2023-03-12T07:11:23.496Z,7.47
2023-03-12T07:14:13.650Z,7.27
2023-03-12T07:17:04.169Z,6.90
2023-03-12T07:19:52.812Z,7.87
2023-03-12T07:22:41.317Z,7.77
2023-03-12T07:25:29.776Z,8.17
2023-03-12T07:28:19.079Z,7.90
2023-03-12T07:31:09.020Z,7.27
2023-03-12T07:33:57.768Z,8.90
2023-03-12T07:36:46.459Z,8.23
2023-03-12T07:39:35.053Z,8.07
2023-03-12T07:42:23.761Z,7.90
2023-03-12T07:45:12.598Z,7.60
2023-03-12T07:48:02.597Z,8.53
2023-03-12T07:50:51.262Z,8.07
2023-03-12T07:53:39.991Z,7.67
2023-03-12T07:56:28.715Z,8.00
2023-03-12T07:59:19.646Z,8.90
2023-03-12T08:02:08.261Z,8.80
2023-03-12T08:04:58.202Z,9.40
2023-03-12T08:07:48.071Z,11.10
2023-03-12T08:10:37.831Z,10.17
2023-03-12T08:13:26.517Z,7.93
2023-03-12T08:16:15.666Z,9.27
2023-03-12T08:19:04.172Z,9.07
2023-03-12T08:21:54.421Z,8.13
2023-03-12T08:24:44.169Z,9.57
2023-03-12T08:27:33.745Z,8.20
2023-03-12T08:30:22.367Z,9.70
2023-03-12T08:33:10.966Z,9.87
2023-03-12T08:35:59.568Z,10.27
2023-03-12T08:38:49.406Z,10.93
2023-03-12T08:41:37.875Z,9.87
2023-03-12T08:44:26.729Z,9.90
2023-03-12T08:47:15.275Z,10.70
2023-03-12T08:50:03.762Z,10.20
2023-03-12T08:52:52.357Z,9.73
2023-03-12T08:55:42.279Z,12.37
2023-03-12T08:58:31.155Z,11.40
2023-03-12T09:01:19.823Z,11.97
2023-03-12T09:04:08.372Z,11.87
2023-03-12T09:06:56.925Z,13.57
2023-03-12T09:09:45.600Z,15.13
2023-03-12T09:12:35.434Z,15.40
2023-03-12T09:15:23.916Z,13.50
2023-03-12T09:18:12.407Z,11.90
2023-03-12T09:21:00.923Z,13.20
2023-03-12T09:23:49.464Z,12.80
2023-03-12T09:26:38.025Z,14.03
2023-03-12T09:29:27.957Z,12.60
2023-03-12T09:32:16.706Z,12.80
2023-03-12T09:35:06.236Z,12.43
2023-03-12T09:37:54.847Z,13.30
2023-03-12T09:40:47.581Z,13.73
2023-03-12T09:43:39.530Z,12.90
2023-03-12T09:46:32.204Z,12.63
2023-03-12T09:49:27.250Z,13.47
2023-03-12T09:52:21.752Z,12.63
2023-03-12T09:55:14.869Z,13.07
2023-03-12T09:58:03.842Z,11.73
2023-03-12T10:00:53.975Z,13.00
2023-03-12T10:04:02.561Z,13.17
2023-03-12T10:06:55.127Z,12.63
2023-03-12T10:10:03.934Z,13.87
2023-03-12T10:13:05.732Z,14.60
2023-03-12T10:16:06.675Z,16.80
2023-03-12T10:19:07.898Z,18.90
2023-03-12T10:22:01.139Z,13.43
2023-03-12T10:24:58.260Z,12.90
2023-03-12T10:27:46.898Z,13.37
2023-03-12T10:30:36.392Z,12.40
2023-03-12T10:33:28.859Z,14.20
2023-03-12T10:36:20.715Z,13.43
2023-03-12T10:39:15.021Z,16.03
2023-03-12T10:42:03.526Z,15.20
2023-03-12T10:44:54.458Z,13.10
2023-03-12T10:47:43.543Z,12.03
2023-03-12T10:50:33.185Z,12.50
2023-03-12T10:53:28.503Z,11.50
2023-03-12T10:56:19.639Z,12.43
2023-03-12T10:59:22.115Z,11.20
2023-03-12T11:02:33.751Z,10.33
2023-03-12T11:05:24.529Z,10.40
2023-03-12T11:08:24.359Z,10.10
2023-03-12T11:11:12.837Z,9.13
2023-03-12T11:14:08.674Z,9.40
2023-03-12T11:16:58.092Z,9.80
2023-03-12T11:19:46.574Z,9.43
2023-03-12T11:22:36.066Z,9.23
2023-03-12T11:25:28.017Z,8.70
2023-03-12T11:28:24.023Z,8.57
2023-03-12T11:31:21.886Z,9.10
2023-03-12T11:34:28.751Z,8.70
2023-03-12T11:37:22.534Z,7.93
2023-03-12T11:40:19.972Z,8.53
2023-03-12T11:43:43.661Z,8.30
2023-03-12T11:46:43.001Z,9.47
2023-03-12T11:49:53.044Z,8.20
2023-03-12T11:52:52.619Z,7.13
2023-03-12T11:55:46.718Z,8.10
2023-03-12T11:59:00.545Z,9.27
2023-03-12T12:01:57.997Z,8.50
2023-03-12T12:05:03.113Z,7.70
2023-03-12T12:08:04.852Z,5.63
2023-03-12T12:11:01.401Z,6.20
2023-03-12T12:14:01.194Z,5.50
2023-03-12T12:17:14.153Z,5.40
2023-03-12T12:20:21.555Z,5.33
2023-03-12T12:23:18.424Z,5.50
2023-03-12T12:26:09.909Z,5.93
2023-03-12T12:29:22.358Z,5.77
2023-03-12T12:32:16.450Z,5.30
2023-03-12T12:35:14.188Z,4.37
2023-03-12T12:38:04.841Z,4.00
2023-03-12T12:40:55.880Z,4.33
2023-03-12T12:43:48.209Z,4.00
2023-03-12T12:46:40.584Z,4.10
2023-03-12T12:49:32.662Z,4.70
2023-03-12T12:52:22.991Z,4.60
2023-03-12T12:55:14.478Z,5.07
2023-03-12T12:58:06.022Z,4.67
2023-03-12T13:00:56.119Z,3.90
2023-03-12T13:03:47.127Z,4.17
2023-03-12T13:06:55.952Z,3.83
2023-03-12T13:09:46.283Z,5.00
2023-03-12T13:12:43.029Z,3.50
2023-03-12T13:15:40.163Z,4.00
2023-03-12T13:18:31.213Z,4.50
2023-03-12T13:21:26.142Z,4.13
2023-03-12T13:24:20.508Z,4.17
2023-03-12T13:27:14.988Z,3.83
2023-03-12T13:30:36.847Z,3.73
2023-03-12T13:33:40.434Z,3.50
2023-03-12T13:36:30.767Z,3.80
2023-03-12T13:39:21.860Z,4.90
2023-03-12T13:42:28.830Z,4.10
2023-03-12T13:45:26.027Z,4.63
2023-03-12T13:48:17.886Z,4.00
2023-03-12T13:51:13.617Z,4.63
2023-03-12T13:54:04.075Z,4.80
2023-03-12T13:56:57.899Z,5.77
2023-03-12T13:59:47.143Z,5.10
2023-03-12T14:02:38.477Z,4.90
2023-03-12T14:05:28.165Z,4.70
2023-03-12T14:08:44.287Z,4.13
2023-03-12T14:11:46.797Z,4.50
2023-03-12T14:14:52.154Z,4.63
2023-03-12T14:17:40.842Z,3.60
2023-03-12T14:20:29.882Z,4.53
2023-03-12T14:23:18.809Z,4.80
2023-03-12T14:26:08.567Z,3.97
2023-03-12T14:29:01.942Z,4.30
2023-03-12T14:31:50.868Z,4.30
2023-03-12T14:34:43.061Z,5.03
2023-03-12T14:37:33.987Z,4.50
2023-03-12T14:40:25.493Z,3.90
2023-03-12T14:43:22.129Z,4.30
2023-03-12T14:46:17.581Z,4.90
2023-03-12T14:49:06.194Z,4.03
2023-03-12T14:51:55.439Z,3.97
2023-03-12T14:54:54.773Z,5.40
2023-03-12T14:57:43.358Z,4.17
2023-03-12T15:00:32.066Z,3.90
2023-03-12T15:03:21.908Z,3.87
2023-03-12T15:06:16.091Z,4.10
2023-03-12T15:09:07.323Z,4.30
2023-03-12T15:11:58.021Z,3.87
2023-03-12T15:14:47.050Z,3.60
2023-03-12T15:17:35.948Z,4.30
2023-03-12T15:20:26.919Z,4.17
2023-03-12T15:23:16.146Z,4.17
2023-03-12T15:26:12.952Z,4.30
2023-03-12T15:29:03.814Z,3.87
2023-03-12T15:31:53.015Z,4.63
2023-03-12T15:34:42.008Z,5.00
2023-03-12T15:37:35.164Z,4.00
2023-03-12T15:40:25.588Z,4.70
2023-03-12T15:43:17.125Z,4.73
2023-03-12T15:46:07.458Z,4.30
2023-03-12T15:48:57.721Z,4.30
2023-03-12T15:51:59.475Z,4.17
2023-03-12T15:55:02.618Z,5.27
2023-03-12T15:57:52.591Z,4.10
2023-03-12T16:00:44.361Z,4.90
2023-03-12T16:03:32.878Z,4.27
2023-03-12T16:06:23.254Z,4.00
2023-03-12T16:09:15.924Z,4.07
2023-03-12T16:12:06.448Z,3.63
2023-03-12T16:14:55.961Z,3.27
2023-03-12T16:17:44.792Z,4.17
2023-03-12T16:20:33.427Z,3.33
2023-03-12T16:23:21.982Z,3.87
2023-03-12T16:26:11.943Z,4.03
2023-03-12T16:29:01.920Z,4.23
2023-03-12T16:31:53.221Z,4.67
2023-03-12T16:34:42.189Z,4.00
2023-03-12T16:37:32.008Z,4.80
2023-03-12T16:40:32.513Z,4.90
2023-03-12T16:43:23.614Z,4.90
2023-03-12T16:46:18.586Z,4.77
2023-03-12T16:49:07.271Z,4.20
2023-03-12T16:51:55.834Z,4.13
2023-03-12T16:54:44.339Z,4.57
2023-03-12T16:57:34.943Z,3.53
2023-03-12T17:00:25.027Z,4.33
2023-03-12T17:03:30.842Z,4.37
2023-03-12T17:06:21.780Z,4.23
2023-03-12T17:09:10.287Z,4.20
2023-03-12T17:11:58.901Z,4.77
2023-03-12T17:14:47.616Z,6.07
2023-03-12T17:17:36.135Z,4.70
2023-03-12T17:20:25.979Z,4.70
2023-03-12T17:23:14.555Z,4.10
2023-03-12T17:26:03.022Z,3.70
2023-03-12T17:28:51.468Z,4.10
2023-03-12T17:31:40.001Z,5.00
2023-03-12T17:34:28.700Z,4.93
2023-03-12T17:37:18.528Z,4.33
2023-03-12T17:40:09.463Z,4.40
2023-03-12T17:42:58.104Z,4.57
2023-03-12T17:45:46.783Z,5.97
2023-03-12T17:48:35.573Z,5.50
2023-03-12T17:51:24.787Z,4.70
2023-03-12T17:54:14.660Z,5.50
2023-03-12T17:57:03.499Z,4.40
2023-03-12T17:59:52.046Z,4.80
2023-03-12T18:02:41.777Z,5.00
2023-03-12T18:05:30.269Z,4.97
2023-03-12T18:08:18.790Z,5.00
2023-03-12T18:11:08.688Z,3.93
2023-03-12T18:13:57.155Z,4.77
2023-03-12T18:16:45.637Z,5.60
2023-03-12T18:19:35.369Z,13.17
2023-03-12T18:22:24.511Z,8.00
2023-03-12T18:25:13.402Z,6.83
2023-03-12T18:28:03.324Z,6.80
2023-03-12T18:30:51.987Z,6.43
2023-03-12T18:33:43.281Z,8.80
2023-03-12T18:36:31.712Z,7.47
2023-03-12T18:39:20.202Z,6.90
2023-03-12T18:42:08.723Z,6.80
2023-03-12T18:44:58.578Z,7.20
2023-03-12T18:47:50.207Z,17.73
2023-03-12T18:50:38.854Z,24.87
2023-03-12T18:53:27.500Z,23.77
2023-03-12T18:56:16.045Z,22.70
2023-03-12T18:59:04.685Z,25.93
2023-03-12T19:01:54.628Z,28.77
2023-03-12T19:04:43.266Z,19.63
2023-03-12T19:07:31.851Z,19.10
2023-03-12T19:10:20.422Z,22.40
2023-03-12T19:13:09.103Z,20.00
2023-03-12T19:16:01.850Z,20.27
2023-03-12T19:18:52.284Z,7.80
2023-03-12T19:21:40.878Z,7.47
2023-03-12T19:24:29.344Z,9.53
2023-03-12T19:27:17.927Z,8.37
2023-03-12T19:30:07.692Z,18.60
2023-03-12T19:32:56.217Z,12.33
2023-03-12T19:35:46.161Z,9.80
2023-03-12T19:38:34.866Z,10.60
2023-03-12T19:41:23.330Z,9.40
2023-03-12T19:44:11.893Z,8.20
2023-03-12T19:47:00.406Z,7.33
2023-03-12T19:49:49.138Z,7.20
2023-03-12T19:52:38.953Z,6.10
2023-03-12T19:55:27.426Z,5.97
2023-03-12T19:58:16.184Z,5.60
2023-03-12T20:01:05.242Z,11.40
2023-03-12T20:03:53.722Z,11.70
2023-03-12T20:06:42.261Z,11.93
2023-03-12T20:09:32.245Z,7.50
2023-03-12T20:12:20.796Z,6.33
2023-03-12T20:15:10.095Z,6.23
2023-03-12T20:17:58.885Z,5.00
2023-03-12T20:20:47.828Z,5.00
2023-03-12T20:23:36.388Z,5.00
2023-03-12T20:26:26.276Z,5.50
2023-03-12T20:29:14.770Z,5.00
2023-03-12T20:32:03.306Z,5.40
2023-03-12T20:34:51.781Z,4.57
2023-03-12T20:37:40.268Z,4.27
2023-03-12T20:40:28.712Z,4.53
2023-03-12T20:43:19.058Z,4.47
2023-03-12T20:46:07.719Z,4.23
2023-03-12T20:48:56.836Z,4.83
2023-03-12T20:51:45.998Z,4.17
2023-03-12T20:54:34.480Z,4.20
2023-03-12T20:57:22.910Z,3.70
2023-03-12T21:00:13.805Z,3.97
2023-03-12T21:03:02.391Z,4.10
2023-03-12T21:05:55.046Z,4.30
2023-03-12T21:08:43.745Z,3.80
2023-03-12T21:11:32.169Z,4.13
2023-03-12T21:14:20.718Z,3.57
2023-03-12T21:17:13.581Z,4.07
2023-03-12T21:20:04.356Z,5.53
2023-03-12T21:22:55.579Z,4.43
2023-03-12T21:25:44.432Z,4.17
2023-03-12T21:28:33.395Z,4.80
2023-03-12T21:31:22.092Z,4.20
2023-03-12T21:34:11.943Z,4.70
2023-03-12T21:37:00.569Z,4.17
2023-03-12T21:39:49.084Z,3.90
2023-03-12T21:42:37.599Z,3.50
2023-03-12T21:45:26.078Z,4.10
2023-03-12T21:48:14.630Z,4.43
2023-03-12T21:51:05.158Z,4.70
2023-03-12T21:53:54.997Z,4.00
2023-03-12T21:56:43.483Z,3.93
2023-03-12T21:59:32.293Z,4.10
2023-03-12T22:02:20.796Z,3.70
2023-03-12T22:05:09.963Z,4.40
2023-03-12T22:07:59.867Z,4.23
2023-03-12T22:10:49.146Z,4.47
2023-03-12T22:13:40.400Z,4.07
2023-03-12T22:16:29.030Z,3.17
2023-03-12T22:19:19.151Z,3.13
2023-03-12T22:22:07.658Z,3.57
2023-03-12T22:24:57.535Z,4.17
2023-03-12T22:27:46.023Z,4.50
2023-03-12T22:30:34.518Z,4.10
2023-03-12T22:33:22.998Z,3.40
2023-03-12T22:36:13.031Z,5.70
2023-03-12T22:39:01.589Z,3.60
2023-03-12T22:41:51.714Z,4.00
2023-03-12T22:44:41.328Z,3.87
2023-03-12T22:47:29.818Z,5.03
2023-03-12T22:50:18.569Z,3.10
2023-03-12T22:53:07.078Z,4.13
2023-03-12T22:55:59.460Z,4.73
2023-03-12T22:58:49.382Z,3.60
2023-03-12T23:01:37.877Z,4.23
2023-03-12T23:04:26.440Z,3.70
2023-03-12T23:07:16.998Z,4.80
2023-03-12T23:10:08.484Z,4.23
2023-03-12T23:12:56.981Z,3.73
2023-03-12T23:15:46.893Z,4.13
2023-03-12T23:18:35.952Z,4.80
2023-03-12T23:21:25.228Z,3.90
2023-03-12T23:24:13.655Z,4.43
2023-03-12T23:27:02.399Z,3.53
2023-03-12T23:29:51.053Z,3.77
2023-03-12T23:32:40.929Z,3.73
2023-03-12T23:35:29.886Z,4.50
2023-03-12T23:38:18.623Z,3.47
2023-03-12T23:41:09.310Z,3.63
2023-03-12T23:43:58.109Z,4.00
2023-03-12T23:46:46.645Z,4.27
2023-03-12T23:49:36.485Z,3.33
2023-03-12T23:52:27.164Z,3.43
2023-03-12T23:55:17.388Z,4.20
2023-03-12T23:58:05.829Z,3.13
